Chilecito, Argentina
Current Conditions -  °F | °C
As of 12:00 AM on Saturday 01 Nov 2014 (Local Time) from SANT Reporting Station
Thunderstorm Thunderstorm  
Wind Chill: 70°   Ceiling: 300
Heat Index: 70°   Visibility: 1.1mi
Dew Point: 68°   Wind: 18mph
Humidity: 94%   Direction: 140°SE
Pressure: 29.94"   Gusts: NA
Location:  29.17°S, 67.5°W
Report Text: SANT 010300Z 14016KT 1800 TS RA BKN003BKN009 FEW045CB 21/20 Q1014
Loading
Personal Weather Stations






























Interactive Weather Map
Tropical Storm Tracking
New forecast layout! Learn more

10-Day Weather Forecast

Advertisements
Track Severe Weather on mobile